Weather History for Hutchinson, MN

Change the Weather History Date:

Friday, March 1, 2013

  Actual Average Record
Temperature  
Mean Temperature 20 °F -  
Max Temperature 29 °F 34 °F 55 °F (1985)
Min Temperature 10 °F 15 °F -32 °F (1962)
Degree Days  
Heating Degree Days 46    
Moisture  
Dew Point 17 °F    
Average Humidity 81    
Maximum Humidity 93    
Minimum Humidity 72    
Precipitation  
Precipitation 0.00 in - - ()
Sea Level Pressure  
Sea Level Pressure 30.30 in    
Wind  
Wind Speed 7 mph (North)    
Max Wind Speed 14 mph    
Max Gust Speed 17 mph    
Visibility 10 miles    
Events      
Averages and records for this station are not official NWS values.
T = Trace of Precipitation, MM = Missing Value Source: NWS Daily Summary

Daily Weather History Graph

Daily Weather History Graph

Search for Another Location

Airport:

Trip Planner

Search our weather history database for the weather conditions in past years. The results will help you decide how hot, cold, wet, or windy it might be!

Date:

Astronomy

Mar. 01, 2013 Rise Set
Actual Time 6:54 AM CST 6:05 PM CST
Civil Twilight 6:25 AM CST 6:34 PM CST
Nautical Twilight 5:51 AM CST 7:08 PM CST
Astronomical Twilight 5:17 AM CST 7:42 PM CST
Moon 10:54 PM CST (3/1) 8:29 AM CST (3/1)
Length of Visible Light 12h 09m
Length of Day
11h 10m
Waning Gibbous, 83% of the Moon is Illuminated
Mar 1
Waning Gibbous
Mar 4
Last Quarter
Mar 11
New
Mar 19
First Quarter
Mar 27
Full

Hourly Weather History & Observations

Time (CST) Temp. Windchill Dew Point Humidity Pressure Visibility Wind Dir Wind Speed Gust Speed Precip Events Conditions
12:14 AM 20.5 °F 12.8 °F 16.0 °F 83% 30.21 in 10.0 mi North 5.8 mph - N/A   Clear
12:34 AM 20.3 °F 12.5 °F 15.8 °F 83% 30.21 in 10.0 mi North 5.8 mph - N/A   Scattered Clouds
12:54 AM 21.7 °F 11.5 °F 16.7 °F 81% 30.21 in 10.0 mi NNE 9.2 mph - N/A   Overcast
1:14 AM 21.9 °F 11.0 °F 16.9 °F 81% 30.21 in 10.0 mi NNE 10.4 mph - N/A   Overcast
1:34 AM 21.9 °F 11.7 °F 17.2 °F 82% 30.21 in 10.0 mi NNE 9.2 mph - N/A   Overcast
1:54 AM 22.1 °F 12.8 °F 17.6 °F 83% 30.22 in 10.0 mi NNE 8.1 mph - N/A   Overcast
2:14 AM 22.1 °F 12.8 °F 17.6 °F 83% 30.23 in 10.0 mi NE 8.1 mph - N/A   Overcast
2:34 AM 22.1 °F 11.3 °F 18.0 °F 84% 30.23 in 10.0 mi NE 10.4 mph - N/A   Overcast
2:54 AM 21.9 °F 13.4 °F 18.0 °F 85% 30.23 in 10.0 mi NE 6.9 mph - N/A   Overcast
3:34 AM 21.9 °F 13.4 °F 18.0 °F 85% 30.24 in 10.0 mi NNE 6.9 mph - N/A   Overcast
3:54 AM 21.9 °F 12.5 °F 18.0 °F 85% 30.24 in 10.0 mi NNE 8.1 mph - N/A   Overcast
4:14 AM 21.9 °F 15.7 °F 18.0 °F 85% 30.25 in 10.0 mi NNE 4.6 mph - N/A   Overcast
4:34 AM 21.9 °F 13.4 °F 18.0 °F 85% 30.25 in 10.0 mi NNE 6.9 mph - N/A   Overcast
4:54 AM 22.1 °F 13.7 °F 18.3 °F 85% 30.26 in 10.0 mi NNE 6.9 mph - N/A   Overcast
5:14 AM 21.9 °F 12.5 °F 18.1 °F 85% 30.26 in 10.0 mi NE 8.1 mph - N/A   Overcast
5:34 AM 22.1 °F 13.7 °F 18.3 °F 85% 30.27 in 10.0 mi NE 6.9 mph - N/A   Overcast
5:54 AM 22.1 °F 12.8 °F 18.1 °F 85% 30.28 in 10.0 mi NE 8.1 mph - N/A   Overcast
6:14 AM 21.9 °F 13.4 °F 18.0 °F 85% 30.28 in 10.0 mi NNE 6.9 mph - N/A   Overcast
6:33 AM 21.7 °F 14.3 °F 18.1 °F 86% 30.28 in 10.0 mi North 5.8 mph - N/A   Overcast
7:14 AM 21.9 °F 13.4 °F 17.8 °F 84% 30.29 in 10.0 mi North 6.9 mph - N/A   Overcast
7:34 AM 21.9 °F 13.4 °F 17.6 °F 83% 30.30 in 10.0 mi NNE 6.9 mph - N/A   Overcast
7:54 AM 21.9 °F 13.4 °F 17.6 °F 83% 30.30 in 10.0 mi NNE 6.9 mph - N/A   Overcast
8:14 AM 22.1 °F 12.8 °F 17.6 °F 83% 30.31 in 10.0 mi NNE 8.1 mph - N/A   Overcast
8:34 AM 22.5 °F 15.1 °F 17.6 °F 82% 30.31 in 10.0 mi NNE 5.8 mph - N/A   Overcast
9:14 AM 23.0 °F 13.9 °F 18.1 °F 82% 30.32 in 10.0 mi NNE 8.1 mph - N/A   Overcast
9:34 AM 24.3 °F 14.6 °F 18.5 °F 79% 30.32 in 10.0 mi NNE 9.2 mph - N/A   Overcast
9:52 AM 24.3 °F 16.3 °F 18.3 °F 78% 30.33 in 10.0 mi NNE 6.9 mph - N/A   Overcast
10:14 AM 24.3 °F 13.9 °F 17.8 °F 76% 30.33 in 10.0 mi North 10.4 mph - N/A   Overcast
10:34 AM 24.6 °F 15.8 °F 18.3 °F 77% 30.33 in 10.0 mi North 8.1 mph - N/A   Overcast
10:54 AM 26.1 °F 15.0 °F 19.8 °F 77% 30.33 in 10.0 mi NE 12.7 mph - N/A   Overcast
11:14 AM 25.0 °F 15.5 °F 18.3 °F 76% 30.33 in 10.0 mi North 9.2 mph 16.1 mph N/A   Overcast
11:34 AM 25.3 °F 16.7 °F 18.5 °F 75% 30.33 in 10.0 mi NNE 8.1 mph - N/A   Overcast
11:53 AM 25.5 °F 17.8 °F 19.2 °F 77% 30.34 in 10.0 mi North 6.9 mph 16.1 mph N/A   Overcast
12:14 PM 26.4 °F 18.0 °F 19.9 °F 77% 30.34 in 10.0 mi North 8.1 mph 17.3 mph N/A   Overcast
12:33 PM 26.6 °F 17.5 °F 20.3 °F 77% 30.33 in 10.0 mi North 9.2 mph - N/A   Overcast
12:54 PM 26.6 °F 19.1 °F 20.3 °F 77% 30.33 in 10.0 mi North 6.9 mph - N/A   Overcast
1:14 PM 26.6 °F 18.2 °F 19.9 °F 76% 30.33 in 10.0 mi North 8.1 mph - N/A   Overcast
1:34 PM 26.6 °F 21.2 °F 19.6 °F 75% 30.32 in 10.0 mi North 4.6 mph - N/A   Overcast
1:54 PM 26.6 °F 15.2 °F 19.4 °F 74% 30.32 in 10.0 mi NNE 13.8 mph - N/A   Overcast
2:13 PM 26.6 °F 18.2 °F 19.4 °F 74% 30.31 in 10.0 mi North 8.1 mph - N/A   Overcast
2:34 PM 27.3 °F 19.1 °F 20.1 °F 74% - 10.0 mi NNW 8.1 mph - N/A   Overcast
3:13 PM 27.9 °F 20.6 °F 20.1 °F 73% 30.31 in 10.0 mi North 6.9 mph - N/A   Mostly Cloudy
3:34 PM 29.3 °F 19.6 °F 21.4 °F 72% 30.31 in 10.0 mi NNW 11.5 mph - N/A   Mostly Cloudy
3:54 PM 26.6 °F 20.0 °F 19.2 °F 74% 30.32 in 10.0 mi North 5.8 mph - N/A   Mostly Cloudy
4:13 PM 26.6 °F 17.5 °F 19.8 °F 75% 30.32 in 10.0 mi NNW 9.2 mph - N/A   Mostly Cloudy
4:34 PM 26.6 °F 20.0 °F 19.4 °F 74% 30.32 in 10.0 mi North 5.8 mph - N/A   Scattered Clouds
5:14 PM 26.6 °F 19.1 °F 19.2 °F 74% 30.32 in 10.0 mi North 6.9 mph - N/A   Clear
5:34 PM 24.4 °F 17.5 °F 17.6 °F 75% 30.33 in 10.0 mi NW 5.8 mph - N/A   Clear
5:54 PM 21.2 °F 13.6 °F 15.6 °F 79% 30.33 in 10.0 mi NW 5.8 mph - N/A   Clear
6:14 PM 20.3 °F 12.5 °F 15.4 °F 81% 30.33 in 10.0 mi NW 5.8 mph - N/A   Clear
6:34 PM 19.9 °F 13.4 °F 15.1 °F 81% 30.33 in 10.0 mi NW 4.6 mph - N/A   Clear
6:54 PM 19.2 °F 12.5 °F 14.7 °F 83% 30.34 in 10.0 mi NW 4.6 mph - N/A   Clear
7:14 PM 19.2 °F 12.5 °F 15.1 °F 84% 30.34 in 10.0 mi NW 4.6 mph - N/A   Clear
7:34 PM 16.2 °F 9.0 °F 12.2 °F 84% 30.34 in 10.0 mi NW 4.6 mph - N/A   Clear
8:15 PM 14.0 °F - 10.4 °F 86% 30.34 in 10.0 mi Calm Calm - N/A   Clear
8:35 PM 12.2 °F - 10.4 °F 92% 30.33 in 10.0 mi Calm Calm - N/A   Clear
8:55 PM 10.4 °F 2.2 °F 8.6 °F 92% 30.34 in 10.0 mi WNW 4.6 mph - N/A   Clear
9:15 PM 12.2 °F 6.1 °F 8.6 °F 85% 30.34 in 10.0 mi NNW 3.5 mph - N/A   Clear
9:55 PM 14.0 °F - 12.2 °F 93% 30.34 in 10.0 mi Calm Calm - N/A   Clear
10:15 PM 14.0 °F 8.2 °F 12.2 °F 93% 30.33 in 10.0 mi NNE 3.5 mph - N/A   Clear
10:35 PM 19.4 °F 11.5 °F 15.8 °F 86% 30.33 in 10.0 mi NNE 5.8 mph - N/A   Clear
10:51 PM 19.0 °F 13.9 °F 14.7 °F 83% 30.34 in 10.0 mi North 3.5 mph - N/A   Clear
10:54 PM 18.1 °F 12.9 °F 13.6 °F 83% 30.34 in 10.0 mi North 3.5 mph - N/A   Clear
11:14 PM 10.0 °F 1.8 °F 7.2 °F 88% 30.34 in 10.0 mi NNW 4.6 mph - N/A   Clear
11:34 PM 10.8 °F - 8.4 °F 90% 30.34 in 10.0 mi Calm Calm - N/A   Clear
11:54 PM 16.0 °F 10.4 °F 11.8 °F 84% 30.33 in 10.0 mi North 3.5 mph - N/A   Clear